Time;durP1;ratioP1;P1;durP2;ratioP2;P2;SDS_P1;SDS_P2;PMS_P1;PMS_P2;Temp;Humidity;BMP_temperature;BMP_pressure;BME280_temperature;BME280_humidity;BME280_pressure;Samples;Min_cycle;Max_cycle;Signal;HPM_P1;HPM_P2
2021/05/02 00:01:12;;;;;;;12.83;11.53;;;6.10;99.90;;;;;;5011086;28;20235;-65
2021/05/02 00:03:38;;;;;;;14.93;11.43;;;6.10;99.90;;;;;;5011542;28;20729;-64
2021/05/02 00:06:05;;;;;;;12.07;10.50;;;6.00;99.90;;;;;;5011813;28;20595;-65
2021/05/02 00:08:32;;;;;;;12.80;11.40;;;5.90;99.90;;;;;;5011502;28;20228;-64
2021/05/02 00:10:58;;;;;;;12.40;11.10;;;5.90;99.90;;;;;;5011140;28;20310;-63
2021/05/02 00:13:24;;;;;;;15.03;12.17;;;5.90;99.90;;;;;;5011277;28;20263;-63
2021/05/02 00:15:49;;;;;;;19.93;12.23;;;5.80;99.90;;;;;;5011489;28;20172;-64
2021/05/02 00:18:17;;;;;;;14.97;11.73;;;5.80;99.90;;;;;;5011251;28;20544;-63
2021/05/02 00:20:43;;;;;;;14.00;12.50;;;5.80;99.90;;;;;;5011401;28;20191;-63
2021/05/02 00:23:09;;;;;;;13.73;12.10;;;5.70;99.90;;;;;;5011072;28;20178;-63
2021/05/02 00:25:35;;;;;;;14.80;12.23;;;5.60;99.90;;;;;;5011548;28;20263;-63
2021/05/02 00:28:06;;;;;;;14.33;12.60;;;5.60;99.90;;;;;;5011074;28;20223;-63
2021/05/02 00:30:32;;;;;;;18.53;12.47;;;5.60;99.90;;;;;;5011113;28;20295;-64
2021/05/02 00:33:00;;;;;;;13.83;12.33;;;5.50;99.90;;;;;;5022677;28;20183;-64
2021/05/02 00:35:26;;;;;;;14.60;12.93;;;5.50;99.90;;;;;;5031071;28;20230;-62
2021/05/02 00:37:53;;;;;;;16.50;13.83;;;5.40;99.90;;;;;;5023703;28;20180;-64
2021/05/02 00:40:28;;;;;;;16.93;12.80;;;5.40;99.90;;;;;;5030554;28;20222;-64
2021/05/02 00:42:54;;;;;;;17.80;13.97;;;5.40;99.90;;;;;;5027651;28;20229;-64
2021/05/02 00:45:39;;;;;;;17.60;14.70;;;5.40;99.90;;;;;;5030966;28;20180;-64
2021/05/02 00:48:10;;;;;;;18.13;13.70;;;5.40;99.90;;;;;;5019150;28;20657;-63
2021/05/02 00:50:52;;;;;;;20.50;14.57;;;5.40;99.90;;;;;;5011012;28;20295;-64
2021/05/02 00:53:21;;;;;;;18.87;13.57;;;5.30;99.90;;;;;;5024761;28;20523;-64
2021/05/02 00:55:56;;;;;;;15.60;13.83;;;5.30;99.90;;;;;;5031079;28;20190;-64
2021/05/02 00:59:03;;;;;;;20.07;15.90;;;5.30;99.90;;;;;;5016956;28;20187;-64
2021/05/02 01:01:38;;;;;;;17.87;14.20;;;5.20;99.90;;;;;;5010364;28;20220;-63
2021/05/02 01:04:05;;;;;;;22.60;15.83;;;5.20;99.90;;;;;;5006066;28;20184;-64
2021/05/02 01:06:32;;;;;;;20.67;17.23;;;5.20;99.90;;;;;;5030997;28;20645;-64
2021/05/02 01:09:03;;;;;;;24.00;17.10;;;5.20;99.90;;;;;;5012532;28;20180;-64
2021/05/02 01:11:29;;;;;;;23.30;18.57;;;5.10;99.90;;;;;;5014231;28;20619;-64
2021/05/02 01:14:00;;;;;;;24.67;16.90;;;5.10;99.90;;;;;;5033307;28;20214;-63
2021/05/02 01:16:28;;;;;;;19.40;15.00;;;5.10;99.90;;;;;;5034452;28;20267;-63
2021/05/02 01:18:55;;;;;;;22.97;17.60;;;5.00;99.90;;;;;;5018033;28;20184;-65
2021/05/02 01:21:31;;;;;;;20.00;16.43;;;5.00;99.90;;;;;;5033798;28;20198;-63
2021/05/02 01:23:58;;;;;;;22.53;16.10;;;5.00;99.90;;;;;;5016658;28;20649;-64
2021/05/02 01:26:29;;;;;;;17.67;15.77;;;4.90;99.90;;;;;;5014579;28;20184;-63
2021/05/02 01:28:57;;;;;;;20.80;15.83;;;4.90;99.90;;;;;;5014275;28;20189;-64
2021/05/02 01:31:23;;;;;;;23.03;16.27;;;4.90;99.90;;;;;;5013703;28;20207;-64
2021/05/02 01:33:50;;;;;;;23.53;17.60;;;5.00;99.90;;;;;;5014125;28;20187;-64
2021/05/02 01:36:16;;;;;;;20.90;17.10;;;5.20;99.90;;;;;;5014237;28;20226;-63
2021/05/02 01:38:43;;;;;;;21.37;16.13;;;5.30;99.90;;;;;;5014031;28;20266;-64
2021/05/02 01:41:09;;;;;;;18.57;16.03;;;5.30;99.90;;;;;;5013708;28;20243;-64
2021/05/02 01:43:34;;;;;;;18.17;15.83;;;5.30;99.90;;;;;;5026736;28;20215;-63
2021/05/02 01:46:02;;;;;;;20.43;16.27;;;5.40;99.90;;;;;;5033815;28;20269;-63
2021/05/02 01:48:29;;;;;;;21.90;16.20;;;5.30;99.90;;;;;;5021481;28;20260;-64
2021/05/02 01:51:01;;;;;;;20.03;16.40;;;5.30;99.90;;;;;;5013457;28;20216;-63
2021/05/02 01:53:30;;;;;;;24.63;17.60;;;5.20;99.90;;;;;;5015080;28;20176;-64
2021/05/02 01:55:59;;;;;;;23.97;18.43;;;5.10;99.90;;;;;;5013826;28;20226;-64
2021/05/02 01:58:24;;;;;;;21.83;17.77;;;5.00;99.90;;;;;;5013723;28;20176;-65
2021/05/02 02:00:56;;;;;;;23.00;18.13;;;5.00;99.90;;;;;;5013494;28;20559;-64
2021/05/02 02:03:22;;;;;;;29.27;18.97;;;5.10;99.90;;;;;;5023488;28;20701;-64
2021/05/02 02:05:49;;;;;;;25.43;18.87;;;5.10;99.90;;;;;;5032730;28;20266;-64
2021/05/02 02:08:15;;;;;;;24.77;18.97;;;5.20;99.90;;;;;;5021301;28;20558;-67
2021/05/02 02:10:42;;;;;;;25.90;19.90;;;5.30;99.90;;;;;;5014234;28;20238;-68
2021/05/02 02:13:10;;;;;;;23.30;18.37;;;5.40;99.90;;;;;;5026342;28;20188;-66
2021/05/02 02:15:36;;;;;;;21.60;17.93;;;5.60;99.90;;;;;;5034080;28;20700;-69
2021/05/02 02:18:02;;;;;;;27.23;18.57;;;5.70;99.90;;;;;;5023469;28;20216;-67
2021/05/02 02:20:34;;;;;;;26.17;18.70;;;5.70;99.90;;;;;;5018005;28;20621;-68
2021/05/02 02:23:07;;;;;;;23.50;18.13;;;5.80;99.90;;;;;;5014156;28;20196;-70
2021/05/02 02:25:39;;;;;;;24.40;18.67;;;5.80;99.90;;;;;;5014245;28;20207;-65
2021/05/02 02:28:09;;;;;;;25.67;18.73;;;5.90;99.90;;;;;;5023617;28;20680;-68
2021/05/02 02:30:35;;;;;;;22.93;18.80;;;5.90;99.90;;;;;;5033923;28;20200;-67
2021/05/02 02:33:01;;;;;;;24.93;17.20;;;6.00;99.90;;;;;;5025259;28;20240;-68
2021/05/02 02:35:29;;;;;;;23.00;17.63;;;6.00;99.90;;;;;;5014071;28;20226;-65
2021/05/02 02:37:55;;;;;;;23.43;17.40;;;6.10;99.90;;;;;;5021696;28;20183;-68
2021/05/02 02:40:23;;;;;;;22.60;18.20;;;6.00;99.90;;;;;;5033325;28;20234;-69
2021/05/02 02:42:51;;;;;;;23.50;19.13;;;6.10;99.90;;;;;;5027683;28;20187;-66
2021/05/02 02:45:17;;;;;;;25.13;18.00;;;6.10;99.90;;;;;;5013757;28;20296;-64
2021/05/02 02:47:48;;;;;;;20.53;16.73;;;6.20;99.90;;;;;;5019880;28;20187;-68
2021/05/02 02:50:18;;;;;;;21.73;17.50;;;6.20;99.90;;;;;;5033233;28;20500;-72
2021/05/02 02:52:53;;;;;;;21.97;17.43;;;6.20;99.90;;;;;;5028115;28;20180;-65
2021/05/02 02:55:21;;;;;;;26.50;18.87;;;6.20;99.90;;;;;;5013565;28;20230;-66
2021/05/02 02:58:00;;;;;;;27.83;19.23;;;6.30;99.90;;;;;;5020013;28;20179;-68
2021/05/02 03:00:30;;;;;;;23.23;15.97;;;6.30;99.90;;;;;;5032963;28;20249;-68
2021/05/02 03:03:04;;;;;;;21.53;17.23;;;6.30;99.90;;;;;;5026517;28;20267;-67
2021/05/02 03:05:32;;;;;;;24.80;19.47;;;6.30;99.90;;;;;;4995924;28;20180;-66
2021/05/02 03:08:01;;;;;;;26.40;18.80;;;6.40;99.90;;;;;;5013627;28;20552;-67
2021/05/02 03:10:28;;;;;;;22.47;18.80;;;6.40;99.90;;;;;;5013221;28;20208;-67
2021/05/02 03:12:55;;;;;;;26.97;19.43;;;6.50;99.90;;;;;;5013296;28;20176;-70
2021/05/02 03:15:21;;;;;;;25.67;19.63;;;6.50;99.90;;;;;;5013448;28;20656;-68
2021/05/02 03:17:57;;;;;;;31.60;20.90;;;6.40;99.90;;;;;;5013581;28;20204;-68
2021/05/02 03:20:26;;;;;;;27.20;20.10;;;6.40;99.90;;;;;;5024196;28;20264;-67
2021/05/02 03:23:03;;;;;;;26.70;19.67;;;6.40;99.90;;;;;;5027321;28;20630;-68
2021/05/02 03:25:33;;;;;;;26.00;19.20;;;6.40;99.90;;;;;;5013134;28;20203;-66
2021/05/02 03:28:05;;;;;;;32.17;20.20;;;6.40;99.90;;;;;;5013006;28;20180;-69
2021/05/02 03:30:32;;;;;;;27.57;19.57;;;6.30;99.90;;;;;;5012749;28;20339;-68
2021/05/02 03:33:02;;;;;;;24.97;19.57;;;6.40;99.90;;;;;;5019067;28;20182;-69
2021/05/02 03:35:36;;;;;;;30.07;21.17;;;6.30;99.90;;;;;;5032970;28;20175;-67
2021/05/02 03:38:37;;;;;;;27.63;21.10;;;6.30;99.90;;;;;;5025173;28;20913;-66
2021/05/02 03:41:03;;;;;;;27.07;20.10;;;6.30;99.90;;;;;;4932774;29;20581;-68
2021/05/02 03:43:28;;;;;;;32.80;21.60;;;6.30;99.90;;;;;;4996373;28;20207;-67
2021/05/02 03:45:54;;;;;;;29.97;22.57;;;6.30;99.90;;;;;;5013400;28;20634;-68
2021/05/02 03:48:20;;;;;;;32.57;23.90;;;6.30;99.90;;;;;;5012831;28;20192;-68
2021/05/02 03:50:46;;;;;;;29.67;21.87;;;6.40;99.90;;;;;;4994842;28;20212;-69
2021/05/02 03:53:11;;;;;;;26.20;19.27;;;6.40;99.90;;;;;;5012510;28;20593;-68
2021/05/02 03:55:44;;;;;;;37.07;22.70;;;6.40;99.90;;;;;;4995359;28;20183;-65
2021/05/02 03:58:12;;;;;;;27.50;20.10;;;6.40;99.90;;;;;;5011530;28;20176;-65
2021/05/02 04:00:39;;;;;;;28.10;21.20;;;6.40;99.90;;;;;;5010906;28;20216;-64
2021/05/02 04:03:05;;;;;;;23.70;17.37;;;6.40;99.90;;;;;;5011398;28;20180;-65
2021/05/02 04:05:31;;;;;;;25.93;18.43;;;6.40;99.90;;;;;;5011701;28;20672;-64
2021/05/02 04:07:56;;;;;;;28.70;21.67;;;6.30;99.90;;;;;;5011160;28;20176;-64
2021/05/02 04:10:23;;;;;;;30.90;21.73;;;6.30;99.90;;;;;;5011177;28;20216;-65
2021/05/02 04:12:48;;;;;;;27.83;22.37;;;6.40;99.90;;;;;;4994104;28;20356;-64
2021/05/02 04:15:15;;;;;;;24.47;19.63;;;6.40;99.90;;;;;;5011938;28;20610;-64
2021/05/02 04:17:40;;;;;;;29.10;19.80;;;6.50;99.90;;;;;;5031040;28;20186;-64
2021/05/02 04:20:07;;;;;;;26.13;19.37;;;6.50;99.90;;;;;;5030771;28;20195;-64
2021/05/02 04:22:32;;;;;;;24.73;18.83;;;6.50;99.90;;;;;;5015207;28;20238;-65
2021/05/02 04:24:58;;;;;;;28.20;19.70;;;6.50;99.90;;;;;;5031378;28;20180;-65
2021/05/02 04:27:24;;;;;;;25.57;17.73;;;6.50;99.90;;;;;;5014191;28;20214;-65
2021/05/02 04:29:50;;;;;;;30.50;19.23;;;6.50;99.90;;;;;;5011077;28;20542;-65
2021/05/02 04:32:15;;;;;;;21.10;15.67;;;6.50;99.90;;;;;;5025475;28;20211;-64
2021/05/02 04:34:41;;;;;;;25.53;18.63;;;6.40;99.90;;;;;;5031405;28;20203;-65
2021/05/02 04:37:07;;;;;;;25.77;18.77;;;6.50;99.90;;;;;;5018134;28;20215;-65
2021/05/02 04:39:33;;;;;;;23.80;19.07;;;7.00;99.90;;;;;;5011207;28;20196;-65
2021/05/02 04:41:59;;;;;;;31.53;20.50;;;6.60;99.90;;;;;;5005512;28;20215;-65
2021/05/02 04:44:25;;;;;;;24.53;19.23;;;6.60;99.90;;;;;;5014468;28;20218;-65
2021/05/02 04:46:52;;;;;;;32.73;18.63;;;6.70;99.90;;;;;;5025695;28;20187;-65
2021/05/02 04:49:18;;;;;;;24.57;18.27;;;6.60;99.90;;;;;;5035097;28;20188;-64
2021/05/02 04:51:44;;;;;;;24.20;17.33;;;6.60;99.90;;;;;;5007095;28;20966;-64
2021/05/02 04:54:10;;;;;;;23.20;16.47;;;6.70;99.90;;;;;;5015180;28;20549;-65
2021/05/02 04:56:36;;;;;;;22.57;16.50;;;6.60;99.90;;;;;;5023259;28;20237;-65
2021/05/02 04:59:03;;;;;;;21.07;15.13;;;6.60;99.90;;;;;;5035017;28;20545;-65
2021/05/02 05:01:28;;;;;;;22.60;15.80;;;6.60;99.90;;;;;;5026072;28;20204;-64
2021/05/02 05:03:55;;;;;;;19.63;15.17;;;6.70;99.90;;;;;;5015175;28;20519;-65
2021/05/02 05:06:22;;;;;;;15.33;13.47;;;6.70;99.90;;;;;;5020533;28;20249;-65
2021/05/02 05:08:48;;;;;;;18.80;13.43;;;6.80;99.90;;;;;;5034897;28;20180;-65
2021/05/02 05:11:13;;;;;;;24.07;14.13;;;6.70;99.90;;;;;;5028961;28;20226;-64
2021/05/02 05:13:39;;;;;;;19.97;13.93;;;6.70;99.90;;;;;;5014834;28;20168;-65
2021/05/02 05:16:04;;;;;;;15.80;12.57;;;6.80;99.90;;;;;;5017969;28;20182;-64
2021/05/02 05:18:30;;;;;;;13.70;12.30;;;6.90;99.90;;;;;;5034707;28;20190;-64
2021/05/02 05:20:56;;;;;;;18.73;10.77;;;6.90;99.90;;;;;;5031540;28;21031;-64
2021/05/02 05:23:22;;;;;;;15.30;11.43;;;7.00;99.90;;;;;;5021146;28;20183;-65
2021/05/02 05:25:49;;;;;;;15.57;9.47;;;7.00;99.90;;;;;;5033616;28;20180;-65
2021/05/02 05:28:15;;;;;;;13.67;10.57;;;7.00;99.90;;;;;;5014605;28;20184;-65
2021/05/02 05:30:40;;;;;;;13.27;10.57;;;7.00;99.90;;;;;;5014002;28;20226;-64
2021/05/02 05:33:08;;;;;;;13.70;9.90;;;7.10;99.90;;;;;;5014551;28;20263;-64
2021/05/02 05:35:34;;;;;;;11.50;9.73;;;7.10;99.90;;;;;;5014358;28;20172;-65
2021/05/02 05:38:00;;;;;;;14.80;9.67;;;7.10;99.90;;;;;;5014234;28;20646;-65
2021/05/02 05:40:27;;;;;;;15.40;9.73;;;7.10;99.90;;;;;;5014435;28;20251;-65
2021/05/02 05:42:54;;;;;;;17.30;10.03;;;7.10;99.90;;;;;;5031786;28;20241;-65
2021/05/02 05:45:20;;;;;;;11.80;9.70;;;7.10;99.90;;;;;;5021611;28;20189;-63
2021/05/02 05:47:47;;;;;;;16.30;9.50;;;7.10;99.90;;;;;;5027385;28;20184;-64
2021/05/02 05:50:14;;;;;;;13.17;8.77;;;7.10;99.90;;;;;;5033511;28;20199;-64
2021/05/02 05:52:44;;;;;;;10.40;9.20;;;7.10;99.90;;;;;;5017890;28;20204;-64
2021/05/02 05:55:11;;;;;;;17.87;9.30;;;7.10;99.90;;;;;;5013659;28;20188;-63
2021/05/02 05:57:37;;;;;;;14.43;9.87;;;7.10;99.90;;;;;;5028154;28;20696;-64
2021/05/02 06:00:06;;;;;;;13.50;9.47;;;7.00;99.90;;;;;;5033340;28;20678;-64
2021/05/02 06:02:31;;;;;;;11.23;9.53;;;7.00;99.90;;;;;;5019023;28;20578;-63
2021/05/02 06:04:57;;;;;;;9.50;8.57;;;7.00;99.90;;;;;;5013937;28;20173;-64
2021/05/02 06:07:23;;;;;;;12.33;9.13;;;7.00;99.90;;;;;;5022489;28;20595;-63
2021/05/02 06:09:48;;;;;;;10.70;9.60;;;7.00;99.90;;;;;;5033253;28;20202;-65
2021/05/02 06:12:14;;;;;;;12.80;9.97;;;7.00;99.90;;;;;;5021392;28;20204;-64
2021/05/02 06:14:40;;;;;;;14.60;10.17;;;7.00;99.90;;;;;;5013831;28;20527;-65
2021/05/02 06:17:06;;;;;;;14.07;8.30;;;7.10;99.90;;;;;;5023659;28;20629;-64
2021/05/02 06:19:32;;;;;;;15.90;9.83;;;7.10;99.90;;;;;;5033187;28;20179;-64
2021/05/02 06:21:58;;;;;;;13.00;9.17;;;7.10;99.90;;;;;;5023420;28;20259;-63
2021/05/02 06:24:23;;;;;;;13.27;9.20;;;7.20;99.90;;;;;;5013428;28;20188;-63
2021/05/02 06:26:49;;;;;;;8.97;8.03;;;7.40;99.90;;;;;;5021106;28;20191;-65
2021/05/02 06:29:16;;;;;;;11.00;8.40;;;7.60;99.90;;;;;;5033013;28;20605;-64
2021/05/02 06:31:41;;;;;;;11.47;7.30;;;7.50;99.90;;;;;;5025630;28;20203;-64
2021/05/02 06:34:07;;;;;;;13.30;7.53;;;7.60;99.90;;;;;;5013290;28;20180;-64
2021/05/02 06:36:33;;;;;;;12.63;9.07;;;7.70;99.90;;;;;;5018431;28;20743;-63
2021/05/02 06:38:58;;;;;;;7.87;6.50;;;7.90;99.90;;;;;;5033029;28;20617;-64
2021/05/02 06:41:24;;;;;;;8.77;7.07;;;7.90;99.90;;;;;;5027864;28;20212;-65
2021/05/02 06:43:50;;;;;;;9.20;7.23;;;8.00;99.90;;;;;;5015709;28;20657;-64
2021/05/02 06:46:28;;;;;;;10.27;7.53;;;8.10;99.90;;;;;;5015059;28;20191;-64
2021/05/02 06:48:59;;;;;;;8.57;6.53;;;8.40;99.90;;;;;;5031330;28;20186;-65
2021/05/02 06:51:25;;;;;;;8.97;6.73;;;8.60;99.90;;;;;;5032496;28;20237;-64
2021/05/02 06:53:52;;;;;;;7.90;5.80;;;8.80;99.90;;;;;;5030858;28;20704;-64
2021/05/02 06:56:21;;;;;;;8.53;6.17;;;9.00;99.90;;;;;;5031559;28;20637;-64
2021/05/02 06:58:48;;;;;;;7.30;6.20;;;9.20;99.90;;;;;;5031400;28;20179;-64
2021/05/02 07:01:14;;;;;;;6.43;5.40;;;9.40;99.90;;;;;;5012557;28;20203;-63
2021/05/02 07:03:39;;;;;;;6.80;5.63;;;9.60;99.90;;;;;;5012563;28;20194;-64
2021/05/02 07:06:05;;;;;;;7.47;5.60;;;9.80;99.90;;;;;;5012935;28;20191;-64
2021/05/02 07:08:31;;;;;;;7.83;5.03;;;10.00;99.90;;;;;;5012638;28;20180;-63
2021/05/02 07:10:57;;;;;;;6.30;4.90;;;10.20;99.90;;;;;;5012199;28;20295;-63
2021/05/02 07:13:23;;;;;;;12.47;5.40;;;10.70;99.90;;;;;;5012890;28;20267;-64
2021/05/02 07:15:49;;;;;;;9.53;4.80;;;10.90;99.90;;;;;;5029890;28;20180;-64
2021/05/02 07:18:15;;;;;;;6.23;5.07;;;11.00;99.90;;;;;;5032322;28;20664;-64
2021/05/02 07:20:41;;;;;;;9.20;5.03;;;11.10;99.90;;;;;;5015617;28;20665;-64
2021/05/02 07:23:07;;;;;;;11.97;5.40;;;11.20;99.90;;;;;;5032214;28;20704;-64
2021/05/02 07:25:32;;;;;;;7.83;4.90;;;11.40;99.90;;;;;;5017182;28;20311;-64
2021/05/02 07:27:58;;;;;;;4.60;4.20;;;12.00;99.90;;;;;;5012205;28;20557;-64
2021/05/02 07:30:24;;;;;;;5.63;5.13;;;12.40;99.90;;;;;;5024753;28;20226;-63
2021/05/02 07:32:49;;;;;;;4.20;3.43;;;12.70;99.90;;;;;;5030457;28;20176;-64
2021/05/02 07:35:15;;;;;;;5.10;3.43;;;12.90;99.90;;;;;;5032046;28;20183;-63
2021/05/02 07:37:41;;;;;;;9.23;3.80;;;12.80;99.90;;;;;;5026089;28;20561;-63
2021/05/02 07:40:08;;;;;;;5.40;3.90;;;12.80;99.90;;;;;;5011774;28;20211;-63
2021/05/02 07:42:34;;;;;;;4.83;4.40;;;12.50;99.90;;;;;;5016004;28;20210;-63
2021/05/02 07:45:00;;;;;;;4.93;3.87;;;11.80;99.90;;;;;;5031909;28;20246;-63
2021/05/02 07:47:26;;;;;;;9.97;4.60;;;11.20;99.90;;;;;;5029051;28;20237;-64
2021/05/02 07:49:51;;;;;;;7.63;4.00;;;10.70;99.90;;;;;;5011705;28;20677;-64
2021/05/02 07:52:17;;;;;;;6.87;5.03;;;10.30;99.90;;;;;;5012965;28;20208;-64
2021/05/02 07:54:46;;;;;;;4.03;3.73;;;10.40;99.90;;;;;;5031629;28;20178;-63
2021/05/02 07:57:11;;;;;;;8.70;4.30;;;11.10;99.90;;;;;;5031359;28;20164;-65
2021/05/02 07:59:40;;;;;;;4.87;4.37;;;11.60;99.90;;;;;;4991353;28;20251;-64
2021/05/02 08:02:06;;;;;;;4.63;4.23;;;12.10;99.90;;;;;;5023188;28;20183;-64
2021/05/02 08:04:37;;;;;;;9.27;4.43;;;12.40;99.90;;;;;;5030433;28;20660;-63
2021/05/02 08:07:02;;;;;;;8.17;4.13;;;12.30;99.90;;;;;;5015966;28;20180;-65
2021/05/02 08:09:28;;;;;;;8.17;3.97;;;12.00;99.90;;;;;;5011793;28;20234;-64
2021/05/02 08:11:54;;;;;;;5.47;4.03;;;12.00;99.90;;;;;;5011337;28;20677;-64
2021/05/02 08:14:19;;;;;;;5.10;3.37;;;11.60;99.90;;;;;;5011793;28;20261;-63
2021/05/02 08:16:45;;;;;;;6.10;4.07;;;11.40;99.90;;;;;;5011640;28;20216;-63
2021/05/02 08:19:10;;;;;;;7.37;3.40;;;11.80;99.90;;;;;;5017671;28;20179;-63
2021/05/02 08:21:37;;;;;;;6.40;3.80;;;12.30;99.90;;;;;;5017857;28;20196;-64
2021/05/02 08:24:04;;;;;;;4.37;3.53;;;12.80;99.90;;;;;;5034881;28;20856;-64
2021/05/02 08:26:29;;;;;;;7.13;4.17;;;13.20;99.90;;;;;;5038075;28;20209;-65
2021/05/02 08:28:55;;;;;;;5.43;4.33;;;13.20;99.90;;;;;;5031127;28;20645;-64
2021/05/02 08:31:21;;;;;;;4.57;4.10;;;12.60;99.90;;;;;;5018111;28;20207;-64
2021/05/02 08:33:46;;;;;;;6.20;4.40;;;11.90;99.90;;;;;;5031251;28;20594;-64
2021/05/02 08:36:12;;;;;;;6.10;4.20;;;11.30;99.90;;;;;;5037977;28;20694;-63
2021/05/02 08:38:37;;;;;;;10.37;4.90;;;11.40;99.90;;;;;;5025502;28;20271;-64
2021/05/02 08:41:04;;;;;;;8.33;3.87;;;12.20;99.90;;;;;;5017678;28;20735;-64
2021/05/02 08:43:30;;;;;;;4.80;3.37;;;12.70;99.90;;;;;;5017935;28;20176;-63
2021/05/02 08:45:56;;;;;;;4.40;4.00;;;12.80;99.90;;;;;;5017776;28;20227;-64
2021/05/02 08:48:24;;;;;;;6.37;3.90;;;12.70;99.90;;;;;;5017887;28;20271;-64
2021/05/02 08:50:50;;;;;;;6.00;4.17;;;12.60;99.90;;;;;;5017633;28;20204;-63
2021/05/02 08:53:17;;;;;;;9.10;4.53;;;13.20;99.90;;;;;;5017798;28;20230;-65
2021/05/02 08:55:43;;;;;;;8.47;4.30;;;14.10;99.90;;;;;;5017757;28;20310;-64
2021/05/02 08:58:20;;;;;;;7.03;3.50;;;15.00;99.90;;;;;;5024914;28;20179;-65
2021/05/02 09:00:47;;;;;;;4.10;3.40;;;15.70;99.90;;;;;;5037385;28;20217;-64
2021/05/02 09:03:13;;;;;;;7.43;3.70;;;16.50;99.90;;;;;;5030294;28;20720;-64
2021/05/02 09:05:43;;;;;;;5.17;3.33;;;15.70;99.90;;;;;;5017881;28;20168;-63
2021/05/02 09:08:10;;;;;;;4.73;3.53;;;14.40;99.90;;;;;;5023664;28;20187;-64
2021/05/02 09:10:36;;;;;;;5.17;3.57;;;13.60;99.90;;;;;;5037223;28;20199;-63
2021/05/02 09:13:04;;;;;;;5.30;3.63;;;13.30;99.90;;;;;;5032779;28;20183;-64
2021/05/02 09:15:31;;;;;;;4.63;3.73;;;12.70;99.90;;;;;;5017966;28;20258;-63
2021/05/02 09:18:23;;;;;;;4.30;3.90;;;12.30;99.90;;;;;;5032043;28;20258;-63
2021/05/02 09:20:52;;;;;;;5.83;3.63;;;12.30;99.90;;;;;;5036559;28;20207;-64
2021/05/02 09:23:18;;;;;;;4.13;3.27;;;13.10;99.90;;;;;;5020521;28;20180;-64
2021/05/02 09:25:48;;;;;;;4.77;3.50;;;14.20;99.90;;;;;;5017565;28;20172;-63
2021/05/02 09:28:14;;;;;;;6.83;3.77;;;14.50;99.90;;;;;;5017469;28;20191;-63
2021/05/02 09:30:40;;;;;;;5.13;3.40;;;14.30;99.90;;;;;;5015859;28;20323;-64
2021/05/02 09:33:06;;;;;;;5.40;3.93;;;13.80;99.90;;;;;;5014361;28;20263;-64
2021/05/02 09:35:36;;;;;;;5.23;4.00;;;13.30;99.90;;;;;;5020625;28;20183;-64
2021/05/02 09:38:15;;;;;;;5.00;3.60;;;13.00;99.90;;;;;;5014153;28;20180;-65
2021/05/02 09:41:07;;;;;;;6.77;3.83;;;12.60;99.90;;;;;;5014015;28;20346;-65
2021/05/02 09:43:44;;;;;;;4.07;3.70;;;12.30;99.90;;;;;;5019781;28;20195;-64
2021/05/02 09:46:32;;;;;;;5.93;3.77;;;12.40;99.90;;;;;;5034001;28;20637;-65
2021/05/02 09:49:08;;;;;;;5.13;3.67;;;12.60;99.90;;;;;;5021315;28;20630;-64
2021/05/02 09:51:35;;;;;;;4.27;3.87;;;13.50;99.90;;;;;;5013936;28;20613;-66
2021/05/02 09:54:17;;;;;;;7.17;4.13;;;14.40;99.90;;;;;;5026943;28;20196;-64
2021/05/02 09:56:52;;;;;;;4.57;3.77;;;15.80;99.90;;;;;;5032146;28;20180;-64
2021/05/02 09:59:47;;;;;;;4.30;3.87;;;15.80;99.90;;;;;;5013952;28;20172;-64
2021/05/02 10:02:12;;;;;;;5.60;3.50;;;15.20;99.90;;;;;;5018867;28;20211;-65
2021/05/02 10:04:51;;;;;;;4.43;3.67;;;14.40;99.90;;;;;;5034004;28;20199;-65
2021/05/02 10:07:19;;;;;;;3.97;3.17;;;13.80;99.90;;;;;;5028215;28;20188;-65
2021/05/02 10:09:45;;;;;;;4.27;3.20;;;12.90;99.90;;;;;;5013434;28;20227;-65
2021/05/02 10:12:13;;;;;;;4.23;3.03;;;12.70;99.90;;;;;;5014612;28;20262;-64
2021/05/02 10:14:43;;;;;;;4.23;3.37;;;13.20;99.90;;;;;;5033423;28;20175;-65
2021/05/02 10:17:10;;;;;;;3.30;2.97;;;14.60;99.90;;;;;;5029568;28;20521;-64
2021/05/02 10:19:36;;;;;;;4.03;3.20;;;15.50;99.90;;;;;;5013632;28;20553;-64
2021/05/02 10:22:03;;;;;;;5.03;3.00;;;15.10;99.90;;;;;;5013014;28;20275;-64
2021/05/02 10:24:29;;;;;;;5.30;3.80;;;14.50;99.90;;;;;;5013625;28;20215;-65
2021/05/02 10:26:55;;;;;;;6.43;3.57;;;14.00;99.90;;;;;;5014026;28;20204;-64
2021/05/02 10:29:29;;;;;;;3.37;3.07;;;13.70;99.90;;;;;;5033007;28;20183;-64
2021/05/02 10:32:00;;;;;;;3.50;3.10;;;13.80;99.90;;;;;;5031545;28;20261;-64
2021/05/02 10:34:27;;;;;;;3.53;3.00;;;13.70;99.90;;;;;;5013077;28;20563;-65
2021/05/02 10:37:26;;;;;;;6.53;3.27;;;14.40;99.90;;;;;;5013483;28;20176;-64
2021/05/02 10:40:23;;;;;;;3.57;3.00;;;14.10;99.90;;;;;;5032403;28;20611;-64
2021/05/02 10:42:53;;;;;;;4.03;3.27;;;13.60;99.90;;;;;;5025159;28;20195;-63
2021/05/02 10:45:31;;;;;;;4.67;3.27;;;13.00;99.90;;;;;;5013155;28;20176;-64
2021/05/02 10:48:06;;;;;;;4.03;3.60;;;12.80;99.90;;;;;;5020622;28;20215;-64
2021/05/02 10:50:33;;;;;;;3.57;3.20;;;12.40;99.90;;;;;;5031985;28;20203;-64
2021/05/02 10:53:09;;;;;;;4.80;3.30;;;12.20;99.90;;;;;;5032848;28;20197;-64
2021/05/02 10:56:06;;;;;;;3.70;3.00;;;12.30;99.90;;;;;;5025879;28;20553;-64
2021/05/02 10:58:34;;;;;;;5.00;3.83;;;12.60;99.90;;;;;;5013227;28;20177;-65
2021/05/02 11:01:07;;;;;;;5.33;3.27;;;12.80;99.90;;;;;;5012083;28;20286;-64
2021/05/02 11:03:39;;;;;;;4.33;3.43;;;12.70;99.90;;;;;;5012859;28;20234;-64
2021/05/02 11:06:13;;;;;;;5.93;3.70;;;12.70;99.90;;;;;;5012486;28;20192;-64
2021/05/02 11:08:51;;;;;;;9.77;3.30;;;12.80;99.90;;;;;;5012885;28;20177;-64
2021/05/02 11:11:29;;;;;;;8.43;3.67;;;12.70;99.90;;;;;;5012040;28;20266;-65
2021/05/02 11:16:54;;;;;;;3.87;3.57;;;12.70;99.90;;;;;;5026077;28;20521;-64
2021/05/02 11:19:20;;;;;;;4.00;3.60;;;12.80;99.90;;;;;;5032211;28;20184;-64
2021/05/02 11:21:49;;;;;;;4.13;3.23;;;12.90;99.90;;;;;;5016528;28;20191;-65
2021/05/02 11:24:36;;;;;;;5.43;3.53;;;12.80;99.90;;;;;;5012546;28;20184;-64
2021/05/02 11:29:48;;;;;;;5.47;3.47;;;13.00;99.90;;;;;;5012522;28;20234;-64
2021/05/02 11:32:34;;;;;;;3.30;3.00;;;13.10;99.90;;;;;;5012145;28;20210;-64
2021/05/02 11:35:02;;;;;;;5.97;3.20;;;13.10;99.90;;;;;;5012358;28;20774;-64
2021/05/02 11:37:44;;;;;;;5.97;3.47;;;13.20;99.90;;;;;;5015900;28;20180;-64
2021/05/02 11:40:24;;;;;;;3.07;2.87;;;9.60;99.90;;;;;;5037887;23;20588;-64
2021/05/02 11:42:53;;;;;;;3.30;3.10;;;12.80;99.90;;;;;;5012188;28;20699;-64
2021/05/02 11:45:24;;;;;;;3.60;3.30;;;12.80;99.90;;;;;;4994256;28;20186;-64
2021/05/02 11:47:50;;;;;;;5.27;3.90;;;12.70;99.90;;;;;;5011797;28;20232;-64
2021/05/02 11:50:17;;;;;;;3.63;3.30;;;12.50;99.90;;;;;;5011363;28;20605;-65
2021/05/02 11:52:47;;;;;;;5.57;3.30;;;12.60;99.90;;;;;;5011475;28;20172;-64
2021/05/02 11:55:28;;;;;;;4.27;3.37;;;13.00;99.90;;;;;;5010164;28;20267;-65
2021/05/02 11:57:54;;;;;;;4.50;3.20;;;13.60;99.90;;;;;;5005891;28;20168;-64
2021/05/02 12:00:39;;;;;;;4.30;3.20;;;14.10;99.90;;;;;;4992098;28;20193;-65
2021/05/02 12:03:06;;;;;;;4.00;3.37;;;14.00;99.90;;;;;;4998850;28;20172;-63
2021/05/02 12:05:32;;;;;;;3.43;3.10;;;14.00;99.90;;;;;;5012003;28;20180;-64
2021/05/02 12:08:08;;;;;;;2.83;2.60;;;13.60;99.90;;;;;;5005274;28;20187;-65
2021/05/02 12:10:34;;;;;;;3.00;2.70;;;13.40;99.90;;;;;;4991790;28;20205;-65
2021/05/02 12:13:00;;;;;;;2.73;2.53;;;13.60;99.90;;;;;;4997509;28;20705;-64
2021/05/02 12:15:25;;;;;;;3.37;3.10;;;13.60;99.90;;;;;;5011787;28;20179;-65
2021/05/02 12:17:52;;;;;;;5.33;3.27;;;13.40;99.90;;;;;;5007453;28;20638;-64
2021/05/02 12:20:23;;;;;;;4.33;3.30;;;13.40;99.90;;;;;;4991761;28;20192;-64
2021/05/02 12:22:49;;;;;;;7.10;3.70;;;13.20;99.90;;;;;;4994951;28;20254;-64
2021/05/02 12:25:14;;;;;;;17.93;8.40;;;12.90;99.90;;;;;;4993813;28;20180;-65
2021/05/02 12:27:57;;;;;;;5.67;3.53;;;12.80;99.90;;;;;;5009175;28;20191;-64
2021/05/02 12:30:23;;;;;;;3.53;3.17;;;12.70;99.90;;;;;;4991596;28;20195;-65
2021/05/02 12:32:49;;;;;;;3.57;3.20;;;12.80;99.90;;;;;;4994705;28;21348;-64
2021/05/02 12:35:15;;;;;;;5.43;4.00;;;12.80;99.90;;;;;;5011569;28;20541;-65
2021/05/02 12:37:41;;;;;;;5.17;3.33;;;12.70;99.90;;;;;;5010309;28;20172;-65
2021/05/02 12:40:07;;;;;;;3.80;3.30;;;12.70;99.90;;;;;;4996110;28;20210;-65
2021/05/02 12:42:34;;;;;;;3.20;2.90;;;12.80;99.90;;;;;;5011538;28;20176;-65
2021/05/02 12:45:00;;;;;;;3.60;2.80;;;12.80;99.90;;;;;;5010307;28;20230;-65
2021/05/02 12:47:27;;;;;;;4.40;3.40;;;12.60;99.90;;;;;;5011647;28;20176;-65
2021/05/02 12:49:55;;;;;;;3.17;2.90;;;12.60;99.90;;;;;;5000042;28;20177;-65
2021/05/02 12:52:28;;;;;;;7.37;3.17;;;13.10;99.90;;;;;;5011816;28;20208;-64
2021/05/02 12:54:54;;;;;;;7.73;3.43;;;13.90;99.90;;;;;;4993420;28;20260;-65
2021/05/02 12:57:25;;;;;;;3.63;3.33;;;14.50;99.90;;;;;;4974477;28;20235;-64